createdAt,value
2022-08-07T00:01:43.896Z,17.20
2022-08-07T00:07:01.429Z,17.20
2022-08-07T00:09:35.544Z,17.10
2022-08-07T00:14:54.043Z,17.20
2022-08-07T00:17:21.280Z,17.20
2022-08-07T00:20:01.274Z,17.10
2022-08-07T00:22:35.272Z,17.10
2022-08-07T00:25:16.611Z,17.10
2022-08-07T00:27:52.644Z,17.10
2022-08-07T00:33:13.811Z,17.10
2022-08-07T00:35:40.753Z,17.10
2022-08-07T00:38:08.014Z,17.10
2022-08-07T00:40:36.370Z,17.10
2022-08-07T00:43:09.693Z,17.10
2022-08-07T00:45:38.476Z,17.10
2022-08-07T00:48:10.423Z,17.00
2022-08-07T00:50:50.592Z,17.10
2022-08-07T00:53:20.609Z,17.00
2022-08-07T00:56:02.082Z,17.00
2022-08-07T00:58:32.646Z,17.00
2022-08-07T01:03:56.206Z,17.00
2022-08-07T01:06:28.897Z,17.00
2022-08-07T01:12:27.670Z,16.90
2022-08-07T01:14:37.081Z,16.90
2022-08-07T01:20:08.157Z,16.80
2022-08-07T01:22:36.170Z,16.80
2022-08-07T01:25:39.877Z,16.80
2022-08-07T01:27:52.579Z,16.80
2022-08-07T01:30:22.505Z,16.80
2022-08-07T01:32:54.756Z,16.70
2022-08-07T01:35:21.702Z,16.80
2022-08-07T01:37:51.414Z,16.70
2022-08-07T01:40:21.635Z,16.70
2022-08-07T01:42:57.141Z,16.70
2022-08-07T01:45:36.367Z,16.70
2022-08-07T01:48:29.674Z,16.70
2022-08-07T01:50:57.255Z,16.60
2022-08-07T01:54:08.886Z,16.60
2022-08-07T01:56:18.097Z,16.60
2022-08-07T01:59:02.902Z,16.60
2022-08-07T02:01:59.479Z,16.60
2022-08-07T02:04:32.520Z,16.60
2022-08-07T02:07:01.364Z,16.60
2022-08-07T02:09:51.581Z,16.50
2022-08-07T02:12:18.598Z,16.60
2022-08-07T02:14:52.495Z,16.60
2022-08-07T02:17:27.767Z,16.60
2022-08-07T02:20:09.761Z,16.50
2022-08-07T02:22:45.790Z,16.50
2022-08-07T02:25:18.123Z,16.50
2022-08-07T02:27:52.274Z,16.50
2022-08-07T02:30:20.457Z,16.50
2022-08-07T02:33:00.996Z,16.40
2022-08-07T02:36:28.754Z,16.40
2022-08-07T02:38:31.567Z,16.40
2022-08-07T02:41:00.443Z,16.40
2022-08-07T02:43:28.246Z,16.40
2022-08-07T02:46:01.908Z,16.40
2022-08-07T02:48:30.420Z,16.40
2022-08-07T02:50:59.598Z,16.40
2022-08-07T02:53:38.250Z,16.30
2022-08-07T02:56:17.538Z,16.30
2022-08-07T02:58:51.392Z,16.30
2022-08-07T03:01:35.989Z,16.30
2022-08-07T03:04:07.540Z,16.30
2022-08-07T03:06:41.481Z,16.20
2022-08-07T03:09:11.276Z,16.20
2022-08-07T03:11:52.441Z,16.20
2022-08-07T03:14:25.210Z,16.20
2022-08-07T03:16:52.345Z,16.20
2022-08-07T03:19:20.010Z,16.20
2022-08-07T03:21:50.931Z,16.20
2022-08-07T03:24:26.633Z,16.20
2022-08-07T03:26:59.003Z,16.20
2022-08-07T03:29:29.576Z,16.20
2022-08-07T03:31:57.315Z,16.10
2022-08-07T03:34:27.773Z,16.20
2022-08-07T03:36:57.461Z,16.20
2022-08-07T03:39:46.213Z,16.20
2022-08-07T03:42:17.072Z,16.20
2022-08-07T03:44:53.190Z,16.10
2022-08-07T03:47:20.789Z,16.10
2022-08-07T03:49:52.705Z,16.10
2022-08-07T03:52:26.343Z,16.10
2022-08-07T03:55:07.018Z,16.10
2022-08-07T03:58:32.706Z,16.10
2022-08-07T04:00:29.116Z,16.10
2022-08-07T04:02:59.016Z,16.00
2022-08-07T04:05:39.623Z,16.10
2022-08-07T04:08:16.180Z,16.10
2022-08-07T04:10:54.044Z,16.00
2022-08-07T04:14:09.945Z,16.00
2022-08-07T04:16:31.077Z,16.00
2022-08-07T04:19:04.427Z,16.00
2022-08-07T04:21:39.760Z,16.00
2022-08-07T04:24:34.239Z,16.00
2022-08-07T04:27:05.708Z,16.00
2022-08-07T04:29:58.601Z,16.00
2022-08-07T04:32:34.260Z,16.00
2022-08-07T04:35:07.194Z,16.00
2022-08-07T04:38:00.809Z,16.10
2022-08-07T04:40:26.677Z,16.10
2022-08-07T04:43:01.174Z,16.10
2022-08-07T04:46:00.393Z,16.10
2022-08-07T04:48:33.201Z,16.20
2022-08-07T04:51:09.307Z,16.20
2022-08-07T04:54:05.425Z,16.20
2022-08-07T04:58:10.345Z,16.20
2022-08-07T05:00:12.729Z,16.20
2022-08-07T05:03:17.278Z,16.30
2022-08-07T05:06:19.636Z,16.30
2022-08-07T05:09:04.465Z,16.30
2022-08-07T05:11:57.102Z,16.40
2022-08-07T05:14:52.112Z,16.40
2022-08-07T05:17:52.931Z,16.50
2022-08-07T05:20:21.428Z,16.50
2022-08-07T05:22:51.450Z,16.60
2022-08-07T05:25:25.658Z,16.60
2022-08-07T05:28:20.797Z,16.70
2022-08-07T05:30:55.297Z,16.70
2022-08-07T05:33:23.856Z,16.80
2022-08-07T05:35:53.494Z,16.80
2022-08-07T05:38:59.954Z,16.80
2022-08-07T05:41:14.043Z,16.80
2022-08-07T05:44:12.168Z,16.90
2022-08-07T05:46:38.219Z,16.90
2022-08-07T05:49:12.468Z,16.90
2022-08-07T05:51:46.187Z,17.00
2022-08-07T05:54:31.312Z,17.00
2022-08-07T05:57:03.463Z,17.00
2022-08-07T05:59:38.767Z,17.10
2022-08-07T06:02:28.471Z,17.20
2022-08-07T06:05:01.905Z,17.20
2022-08-07T06:08:14.351Z,17.20
2022-08-07T06:10:18.627Z,17.30
2022-08-07T06:12:45.953Z,17.30
2022-08-07T06:15:16.340Z,17.30
2022-08-07T06:17:50.688Z,17.30
2022-08-07T06:20:31.895Z,17.40
2022-08-07T06:23:46.228Z,17.40
2022-08-07T06:25:57.158Z,17.40
2022-08-07T06:31:15.683Z,17.50
2022-08-07T06:33:46.125Z,17.50
2022-08-07T06:36:14.270Z,17.50
2022-08-07T06:40:16.543Z,17.50
2022-08-07T06:42:02.909Z,17.50
2022-08-07T06:44:36.646Z,17.60
2022-08-07T06:47:10.104Z,17.70
2022-08-07T06:49:52.186Z,17.70
2022-08-07T06:52:35.536Z,17.70
2022-08-07T06:55:32.815Z,17.80
2022-08-07T06:58:01.426Z,17.80
2022-08-07T07:00:33.077Z,17.80
2022-08-07T07:03:08.728Z,17.80
2022-08-07T07:06:03.542Z,17.80
2022-08-07T07:12:08.195Z,18.00
2022-08-07T07:14:09.913Z,18.00
2022-08-07T07:16:49.935Z,18.10
2022-08-07T07:19:55.577Z,18.30
2022-08-07T07:26:31.670Z,18.40
2022-08-07T07:28:29.909Z,18.40
2022-08-07T07:34:22.365Z,18.60
2022-08-07T07:37:05.487Z,18.70
2022-08-07T07:39:55.266Z,18.70
2022-08-07T07:42:25.732Z,18.90
2022-08-07T07:47:55.419Z,18.90
2022-08-07T07:50:34.580Z,19.20
2022-08-07T07:56:01.305Z,19.40
2022-08-07T07:58:40.360Z,19.40
2022-08-07T08:02:03.297Z,19.40
2022-08-07T08:04:09.550Z,19.40
2022-08-07T08:06:39.677Z,19.50
2022-08-07T08:09:09.744Z,19.60
2022-08-07T08:11:59.750Z,19.60
2022-08-07T08:14:31.740Z,19.70
2022-08-07T08:17:55.709Z,19.90
2022-08-07T08:20:17.220Z,19.90
2022-08-07T08:23:08.130Z,19.90
2022-08-07T08:25:58.187Z,19.90
2022-08-07T08:32:17.304Z,20.20
2022-08-07T08:34:27.351Z,20.30
2022-08-07T08:37:00.144Z,20.40
2022-08-07T08:39:39.896Z,20.50
2022-08-07T08:45:41.897Z,20.70
2022-08-07T08:48:36.195Z,20.70
2022-08-07T08:51:26.324Z,21.00
2022-08-07T08:54:22.482Z,20.90
2022-08-07T09:00:00.169Z,21.10
2022-08-07T09:02:40.252Z,21.50
2022-08-07T09:05:38.077Z,21.80
2022-08-07T09:11:50.664Z,22.30
2022-08-07T09:14:34.181Z,22.30
2022-08-07T09:17:13.518Z,22.60
2022-08-07T09:19:59.617Z,23.00
2022-08-07T09:24:31.344Z,23.50
2022-08-07T09:25:58.630Z,23.40
2022-08-07T09:30:01.134Z,24.00
2022-08-07T09:32:18.478Z,24.30
2022-08-07T09:36:05.187Z,24.60
2022-08-07T09:38:01.551Z,25.20
2022-08-07T09:41:10.369Z,25.60
2022-08-07T09:44:32.756Z,25.60
2022-08-07T09:48:00.147Z,25.80
2022-08-07T09:50:36.473Z,26.20
2022-08-07T09:53:09.877Z,26.50
2022-08-07T09:56:37.624Z,26.80
2022-08-07T09:59:29.419Z,27.10
2022-08-07T10:02:31.677Z,27.40
2022-08-07T10:05:59.461Z,27.40
2022-08-07T10:08:44.247Z,27.30
2022-08-07T10:12:00.970Z,27.90
2022-08-07T10:14:23.107Z,27.40
2022-08-07T10:17:23.974Z,27.20
2022-08-07T10:20:21.824Z,27.40
2022-08-07T10:24:06.226Z,28.00
2022-08-07T10:26:25.223Z,28.00
2022-08-07T10:29:31.774Z,28.90
2022-08-07T10:32:36.839Z,29.20
2022-08-07T10:35:55.263Z,29.50
2022-08-07T10:38:42.323Z,27.90
2022-08-07T10:41:46.383Z,27.80
2022-08-07T10:44:28.883Z,27.90
2022-08-07T10:47:27.122Z,28.00
2022-08-07T10:50:19.088Z,28.20
2022-08-07T10:52:55.886Z,27.90
2022-08-07T10:55:38.035Z,28.70
2022-08-07T10:58:46.225Z,28.40
2022-08-07T11:01:35.629Z,28.20
2022-08-07T11:04:34.594Z,28.70
2022-08-07T11:07:14.903Z,29.40
2022-08-07T11:10:09.593Z,28.90
2022-08-07T11:12:49.152Z,28.80
2022-08-07T11:15:31.405Z,27.90
2022-08-07T11:18:20.264Z,28.30
2022-08-07T11:20:56.400Z,28.20
2022-08-07T11:23:48.539Z,28.30
2022-08-07T11:26:38.642Z,28.10
2022-08-07T11:29:42.631Z,29.50
2022-08-07T11:32:28.945Z,30.10
2022-08-07T11:35:00.139Z,29.90
2022-08-07T11:37:58.338Z,30.90
2022-08-07T11:41:07.204Z,30.90
2022-08-07T11:44:11.103Z,31.30
2022-08-07T11:46:50.021Z,32.00
2022-08-07T11:49:50.582Z,30.80
2022-08-07T11:52:37.712Z,31.30
2022-08-07T11:55:19.110Z,31.30
2022-08-07T11:58:33.384Z,31.20
2022-08-07T12:01:20.355Z,30.30
2022-08-07T12:04:09.023Z,29.80
2022-08-07T12:07:07.968Z,29.30
2022-08-07T12:10:06.989Z,30.70
2022-08-07T12:12:46.419Z,31.40
2022-08-07T12:15:35.785Z,31.20
2022-08-07T12:18:22.075Z,29.80
2022-08-07T12:21:16.724Z,31.30
2022-08-07T12:24:36.971Z,32.20
2022-08-07T12:27:16.368Z,32.80
2022-08-07T12:29:53.942Z,32.00
2022-08-07T12:32:30.881Z,30.80
2022-08-07T12:35:02.194Z,31.60
2022-08-07T12:38:09.060Z,30.80
2022-08-07T12:44:01.966Z,30.50
2022-08-07T12:46:10.435Z,31.10
2022-08-07T12:48:52.835Z,32.30
2022-08-07T12:51:24.431Z,32.90
2022-08-07T12:54:37.412Z,32.50
2022-08-07T12:57:09.383Z,33.70
2022-08-07T12:59:54.235Z,33.10
2022-08-07T13:02:49.320Z,32.50
2022-08-07T13:06:04.347Z,32.00
2022-08-07T13:08:41.315Z,31.40
2022-08-07T13:11:16.150Z,31.80
2022-08-07T13:13:55.045Z,31.40
2022-08-07T13:16:38.550Z,31.00
2022-08-07T13:19:35.226Z,31.90
2022-08-07T13:22:28.083Z,31.90
2022-08-07T13:25:08.221Z,30.90
2022-08-07T13:28:11.459Z,30.20
2022-08-07T13:30:41.343Z,28.90
2022-08-07T13:34:33.211Z,28.00
2022-08-07T13:36:39.650Z,27.10
2022-08-07T13:39:48.946Z,26.70
2022-08-07T13:42:19.256Z,26.50
2022-08-07T13:45:11.610Z,26.40
2022-08-07T13:48:08.263Z,26.20
2022-08-07T13:50:33.661Z,26.20
2022-08-07T13:53:02.931Z,26.10
2022-08-07T13:55:31.085Z,26.00
2022-08-07T13:58:31.758Z,26.20
2022-08-07T14:01:13.516Z,26.20
2022-08-07T14:04:07.463Z,26.10
2022-08-07T14:06:34.315Z,26.00
2022-08-07T14:09:04.811Z,26.20
2022-08-07T14:11:53.206Z,26.10
2022-08-07T14:14:31.451Z,26.10
2022-08-07T14:17:31.983Z,26.00
2022-08-07T14:20:42.665Z,26.00
2022-08-07T14:23:09.120Z,25.80
2022-08-07T14:25:39.576Z,25.80
2022-08-07T14:28:15.468Z,25.80
2022-08-07T14:30:47.052Z,25.90
2022-08-07T14:33:22.378Z,25.80
2022-08-07T14:35:59.456Z,25.80
2022-08-07T14:38:33.358Z,25.80
2022-08-07T14:41:04.932Z,25.80
2022-08-07T14:43:59.199Z,25.80
2022-08-07T14:46:31.010Z,25.80
2022-08-07T14:49:57.551Z,25.50
2022-08-07T14:52:04.724Z,25.50
2022-08-07T14:57:54.323Z,25.50
2022-08-07T15:00:20.751Z,25.60
2022-08-07T15:02:59.078Z,25.70
2022-08-07T15:05:27.403Z,25.60
2022-08-07T15:07:58.243Z,25.60
2022-08-07T15:10:29.914Z,25.60
2022-08-07T15:16:02.677Z,25.40
2022-08-07T15:18:36.175Z,25.50
2022-08-07T15:21:44.011Z,25.50
2022-08-07T15:25:15.071Z,25.50
2022-08-07T15:27:10.441Z,25.40
2022-08-07T15:30:09.796Z,25.40
2022-08-07T15:32:39.841Z,25.40
2022-08-07T15:35:19.672Z,25.30
2022-08-07T15:38:29.918Z,25.30
2022-08-07T15:41:22.862Z,25.40
2022-08-07T15:43:57.288Z,25.40
2022-08-07T15:46:32.221Z,25.50
2022-08-07T15:54:39.658Z,25.30
2022-08-07T15:57:40.070Z,25.30
2022-08-07T15:59:59.293Z,25.30
2022-08-07T16:02:29.901Z,25.30
2022-08-07T16:05:04.412Z,25.30
2022-08-07T16:08:30.285Z,25.30
2022-08-07T16:11:06.906Z,25.30
2022-08-07T16:14:03.209Z,25.30
2022-08-07T16:16:48.446Z,25.20
2022-08-07T16:19:41.945Z,25.20
2022-08-07T16:22:38.067Z,25.10
2022-08-07T16:25:55.058Z,25.10
2022-08-07T16:30:05.663Z,25.10
2022-08-07T16:31:57.407Z,25.00
2022-08-07T16:34:39.544Z,25.00
2022-08-07T16:38:04.634Z,25.00
2022-08-07T16:40:30.698Z,24.90
2022-08-07T16:44:06.454Z,24.90
2022-08-07T16:50:20.739Z,24.90
2022-08-07T16:53:14.869Z,24.90
2022-08-07T16:55:53.884Z,24.90
2022-08-07T16:59:11.385Z,24.90
2022-08-07T17:01:41.380Z,24.80
2022-08-07T17:04:14.145Z,24.80
2022-08-07T17:07:03.244Z,24.70
2022-08-07T17:10:07.474Z,24.70
2022-08-07T17:12:53.881Z,24.60
2022-08-07T17:15:50.710Z,24.60
2022-08-07T17:18:37.303Z,24.60
2022-08-07T17:21:18.822Z,24.50
2022-08-07T17:23:58.879Z,24.50
2022-08-07T17:26:49.757Z,24.50
2022-08-07T17:30:15.379Z,24.50
2022-08-07T17:32:59.685Z,24.40
2022-08-07T17:35:55.095Z,24.40
2022-08-07T17:38:33.129Z,24.40
2022-08-07T17:42:01.662Z,24.40
2022-08-07T17:44:05.748Z,24.30
2022-08-07T17:46:52.613Z,24.30
2022-08-07T17:49:24.452Z,24.20
2022-08-07T17:52:00.582Z,24.20
2022-08-07T17:54:53.892Z,24.10
2022-08-07T17:57:58.891Z,24.00
2022-08-07T18:00:34.369Z,24.00
2022-08-07T18:03:28.804Z,23.90
2022-08-07T18:06:38.347Z,23.90
2022-08-07T18:09:08.613Z,23.80
2022-08-07T18:12:17.897Z,23.70
2022-08-07T18:14:46.388Z,23.70
2022-08-07T18:18:36.528Z,23.60
2022-08-07T18:21:12.803Z,23.50
2022-08-07T18:27:18.301Z,23.20
2022-08-07T18:30:32.765Z,23.10
2022-08-07T18:33:33.711Z,23.00
2022-08-07T18:36:33.174Z,22.90
2022-08-07T18:40:06.438Z,22.80
2022-08-07T18:42:31.859Z,22.70
2022-08-07T18:50:05.525Z,22.60
2022-08-07T18:52:33.775Z,22.50
2022-08-07T18:54:49.832Z,22.40
2022-08-07T19:00:42.794Z,22.30
2022-08-07T19:03:35.412Z,22.20
2022-08-07T19:06:16.143Z,22.10
2022-08-07T19:08:58.916Z,22.00
2022-08-07T19:14:51.220Z,22.00
2022-08-07T19:18:03.864Z,21.90
2022-08-07T19:23:18.517Z,21.90
2022-08-07T19:26:25.215Z,21.80
2022-08-07T19:30:55.522Z,21.80
2022-08-07T19:31:58.495Z,21.80
2022-08-07T19:34:32.579Z,21.70
2022-08-07T19:37:10.082Z,21.70
2022-08-07T19:39:57.938Z,21.60
2022-08-07T19:42:31.549Z,21.60
2022-08-07T19:45:08.448Z,21.60
2022-08-07T19:47:42.136Z,21.50
2022-08-07T19:50:43.940Z,21.50
2022-08-07T19:52:58.474Z,21.50
2022-08-07T19:55:57.699Z,21.50
2022-08-07T19:58:28.276Z,21.40
2022-08-07T20:00:57.763Z,21.40
2022-08-07T20:03:35.687Z,21.30
2022-08-07T20:06:15.361Z,21.30
2022-08-07T20:08:57.791Z,21.30
2022-08-07T20:14:38.783Z,21.20
2022-08-07T20:17:23.448Z,21.20
2022-08-07T20:19:58.721Z,21.20
2022-08-07T20:25:24.010Z,21.20
2022-08-07T20:27:58.508Z,21.20
2022-08-07T20:30:36.523Z,21.20
2022-08-07T20:39:00.515Z,21.10
2022-08-07T20:41:38.372Z,21.10
2022-08-07T20:44:10.337Z,21.10
2022-08-07T20:46:43.938Z,21.10
2022-08-07T20:50:00.719Z,21.00
2022-08-07T20:54:56.591Z,21.00
2022-08-07T20:57:28.591Z,21.00
2022-08-07T21:00:07.873Z,21.00
2022-08-07T21:02:58.958Z,21.00
2022-08-07T21:08:46.667Z,20.90
2022-08-07T21:11:17.360Z,20.90
2022-08-07T21:18:01.144Z,20.80
2022-08-07T21:19:51.442Z,20.80
2022-08-07T21:22:28.914Z,20.80
2022-08-07T21:25:12.124Z,20.80
2022-08-07T21:27:47.325Z,20.80
2022-08-07T21:30:17.591Z,20.70
2022-08-07T21:33:11.057Z,20.70
2022-08-07T21:36:11.811Z,20.70
2022-08-07T21:39:47.120Z,20.70
2022-08-07T21:42:37.515Z,20.60
2022-08-07T21:46:09.720Z,20.60
2022-08-07T21:51:51.371Z,20.60
2022-08-07T21:54:45.967Z,20.60
2022-08-07T21:58:03.202Z,20.60
2022-08-07T22:00:32.239Z,20.60
2022-08-07T22:03:17.088Z,20.60
2022-08-07T22:09:25.330Z,20.50
2022-08-07T22:12:07.279Z,20.50
2022-08-07T22:16:39.247Z,20.50
2022-08-07T22:18:04.395Z,20.40
2022-08-07T22:24:19.999Z,20.30
2022-08-07T22:26:50.838Z,20.30
2022-08-07T22:32:35.463Z,20.20
2022-08-07T22:35:07.843Z,20.20
2022-08-07T22:38:02.687Z,20.10
2022-08-07T22:43:56.829Z,20.10
2022-08-07T22:47:02.061Z,20.10
2022-08-07T22:52:45.847Z,20.10
2022-08-07T22:55:34.017Z,20.00
2022-08-07T22:58:04.085Z,20.00
2022-08-07T23:00:50.656Z,19.90
2022-08-07T23:03:29.742Z,20.00
2022-08-07T23:06:51.674Z,19.90
2022-08-07T23:10:06.413Z,19.90
2022-08-07T23:12:49.299Z,19.90
2022-08-07T23:16:06.452Z,19.90
2022-08-07T23:21:29.896Z,19.90
2022-08-07T23:24:16.934Z,19.80
2022-08-07T23:26:59.437Z,19.90
2022-08-07T23:30:39.408Z,19.90
2022-08-07T23:34:33.968Z,19.90
2022-08-07T23:36:34.105Z,19.90
2022-08-07T23:42:40.601Z,19.80
2022-08-07T23:46:03.661Z,19.80
2022-08-07T23:48:41.046Z,19.80
2022-08-07T23:53:05.924Z,19.70
2022-08-07T23:54:19.946Z,19.70
2022-08-07T23:57:34.709Z,19.70
